createdAt,value
2019-03-27T00:01:59.467Z,99.90
2019-03-27T00:04:29.270Z,99.90
2019-03-27T00:06:59.103Z,99.90
2019-03-27T00:09:28.914Z,99.90
2019-03-27T00:11:58.825Z,99.90
2019-03-27T00:14:28.639Z,99.90
2019-03-27T00:16:58.447Z,99.90
2019-03-27T00:19:28.278Z,99.90
2019-03-27T00:21:58.101Z,99.90
2019-03-27T00:24:27.953Z,99.90
2019-03-27T00:26:57.776Z,99.90
2019-03-27T00:29:27.573Z,99.90
2019-03-27T00:31:57.385Z,99.90
2019-03-27T00:34:27.300Z,99.90
2019-03-27T00:36:57.121Z,99.90
2019-03-27T00:39:26.921Z,99.90
2019-03-27T00:41:56.719Z,99.90
2019-03-27T00:44:26.536Z,99.90
2019-03-27T00:46:56.364Z,99.90
2019-03-27T00:49:26.221Z,99.90
2019-03-27T00:51:56.018Z,99.90
2019-03-27T00:54:25.799Z,99.90
2019-03-27T00:56:55.631Z,99.90
2019-03-27T00:59:25.436Z,99.90
2019-03-27T01:01:55.268Z,99.90
2019-03-27T01:04:25.115Z,99.90
2019-03-27T01:06:54.952Z,99.90
2019-03-27T01:09:24.777Z,99.90
2019-03-27T01:11:54.577Z,99.90
2019-03-27T01:14:24.401Z,99.90
2019-03-27T01:16:54.201Z,99.90
2019-03-27T01:19:24.000Z,99.90
2019-03-27T01:21:53.832Z,99.90
2019-03-27T01:24:23.629Z,99.90
2019-03-27T01:26:53.456Z,99.90
2019-03-27T01:29:23.281Z,99.90
2019-03-27T01:31:53.076Z,99.90
2019-03-27T01:34:22.914Z,99.90
2019-03-27T01:36:52.725Z,99.90
2019-03-27T01:39:22.603Z,99.90
2019-03-27T01:41:52.433Z,99.90
2019-03-27T01:44:22.232Z,99.90
2019-03-27T01:46:52.028Z,99.90
2019-03-27T01:49:21.869Z,99.90
2019-03-27T01:51:51.661Z,99.90
2019-03-27T01:54:21.487Z,99.90
2019-03-27T01:56:51.397Z,99.90
2019-03-27T01:59:21.200Z,99.90
2019-03-27T02:01:51.031Z,99.90
2019-03-27T02:04:20.835Z,99.90
2019-03-27T02:06:50.654Z,99.90
2019-03-27T02:09:20.512Z,99.90
2019-03-27T02:11:50.399Z,99.90
2019-03-27T02:14:20.212Z,99.90
2019-03-27T02:16:50.014Z,99.90
2019-03-27T02:19:19.898Z,99.90
2019-03-27T02:21:49.716Z,99.90
2019-03-27T02:24:19.508Z,99.90
2019-03-27T02:26:49.340Z,99.90
2019-03-27T02:29:19.155Z,99.90
2019-03-27T02:31:48.974Z,99.90
2019-03-27T02:34:18.792Z,99.90
2019-03-27T02:36:48.658Z,99.90
2019-03-27T02:39:18.467Z,99.90
2019-03-27T02:41:48.363Z,99.90
2019-03-27T02:44:18.267Z,99.90
2019-03-27T02:46:48.090Z,99.90
2019-03-27T02:49:17.885Z,99.90
2019-03-27T02:51:47.689Z,99.90
2019-03-27T02:54:17.497Z,99.90
2019-03-27T02:56:47.368Z,99.90
2019-03-27T02:59:17.190Z,99.90
2019-03-27T03:01:48.245Z,99.90
2019-03-27T03:04:18.246Z,99.90
2019-03-27T03:06:48.069Z,99.90
2019-03-27T03:09:17.878Z,99.90
2019-03-27T03:11:47.693Z,99.90
2019-03-27T03:14:17.513Z,99.90
2019-03-27T03:16:47.385Z,99.90
2019-03-27T03:19:17.223Z,99.90
2019-03-27T03:21:47.048Z,99.90
2019-03-27T03:24:16.854Z,99.90
2019-03-27T03:26:50.639Z,99.90
2019-03-27T03:29:18.302Z,99.90
2019-03-27T03:31:48.162Z,99.90
2019-03-27T03:34:17.985Z,99.90
2019-03-27T03:36:47.848Z,99.90
2019-03-27T03:39:17.649Z,99.90
2019-03-27T03:41:47.478Z,99.90
2019-03-27T03:44:17.286Z,99.90
2019-03-27T03:46:59.718Z,99.90
2019-03-27T03:49:18.609Z,99.90
2019-03-27T03:51:48.470Z,99.90
2019-03-27T03:54:19.067Z,99.90
2019-03-27T03:56:51.345Z,99.90
2019-03-27T03:59:22.745Z,99.90
2019-03-27T04:01:54.953Z,99.90
2019-03-27T04:04:25.253Z,99.90
2019-03-27T04:06:55.040Z,99.90
2019-03-27T04:09:25.002Z,99.90
2019-03-27T04:11:54.954Z,99.90
2019-03-27T04:14:24.909Z,99.90
2019-03-27T04:16:54.743Z,99.90
2019-03-27T04:19:24.551Z,99.90
2019-03-27T04:21:54.389Z,99.90
2019-03-27T04:24:24.202Z,99.90
2019-03-27T04:26:53.989Z,99.90
2019-03-27T04:29:23.825Z,99.90
2019-03-27T04:31:53.625Z,99.90
2019-03-27T04:34:23.461Z,99.90
2019-03-27T04:36:53.269Z,99.90
2019-03-27T04:39:23.065Z,99.90
2019-03-27T04:41:52.893Z,99.90
2019-03-27T04:44:22.689Z,99.90
2019-03-27T04:46:52.509Z,99.90
2019-03-27T04:49:22.409Z,99.90
2019-03-27T04:51:52.205Z,99.90
2019-03-27T04:54:22.033Z,99.90
2019-03-27T04:56:51.835Z,99.90
2019-03-27T04:59:21.652Z,99.90
2019-03-27T05:01:51.544Z,99.90
2019-03-27T05:04:21.751Z,99.90
2019-03-27T05:06:51.563Z,99.90
2019-03-27T05:09:21.369Z,99.90
2019-03-27T05:11:51.214Z,99.90
2019-03-27T05:14:21.004Z,99.90
2019-03-27T05:16:50.804Z,99.90
2019-03-27T05:19:20.629Z,99.90
2019-03-27T05:21:50.444Z,99.90
2019-03-27T05:24:20.270Z,99.90
2019-03-27T05:26:50.064Z,99.90
2019-03-27T05:29:19.889Z,99.90
2019-03-27T05:31:49.709Z,99.90
2019-03-27T05:34:19.586Z,99.90
2019-03-27T05:36:49.409Z,99.90
2019-03-27T05:39:20.726Z,99.90
2019-03-27T05:41:50.605Z,99.90
2019-03-27T05:44:20.425Z,99.90
2019-03-27T05:46:50.231Z,99.90
2019-03-27T05:49:20.136Z,99.90
2019-03-27T05:51:50.199Z,99.90
2019-03-27T05:54:19.989Z,99.90
2019-03-27T05:56:49.917Z,99.90
2019-03-27T05:59:27.411Z,99.90
2019-03-27T06:01:57.257Z,99.90
2019-03-27T06:04:27.151Z,99.90
2019-03-27T06:06:56.940Z,99.90
2019-03-27T06:09:26.757Z,99.90
2019-03-27T06:11:56.562Z,99.90
2019-03-27T06:14:26.381Z,99.90
2019-03-27T06:16:56.184Z,99.90
2019-03-27T06:19:25.993Z,99.90
2019-03-27T06:21:55.841Z,99.90
2019-03-27T06:24:25.633Z,99.90
2019-03-27T06:26:55.475Z,99.90
2019-03-27T06:29:25.409Z,99.90
2019-03-27T06:31:55.219Z,99.90
2019-03-27T06:34:25.042Z,99.90
2019-03-27T06:36:54.835Z,99.90
2019-03-27T06:39:24.832Z,99.90
2019-03-27T06:41:54.645Z,99.90
2019-03-27T06:44:24.520Z,99.90
2019-03-27T06:46:54.433Z,99.90
2019-03-27T06:49:24.243Z,99.90
2019-03-27T06:51:54.062Z,99.90
2019-03-27T06:54:23.861Z,99.90
2019-03-27T06:56:53.663Z,99.90
2019-03-27T06:59:23.496Z,99.90
2019-03-27T07:01:53.313Z,99.90
2019-03-27T07:04:23.118Z,99.90
2019-03-27T07:06:52.964Z,99.90
2019-03-27T07:09:22.793Z,99.90
2019-03-27T07:11:52.770Z,99.90
2019-03-27T07:14:22.701Z,99.90
2019-03-27T07:16:52.521Z,99.90
2019-03-27T07:19:22.330Z,99.90
2019-03-27T07:21:52.180Z,99.90
2019-03-27T07:24:22.000Z,99.90
2019-03-27T07:26:51.820Z,99.90
2019-03-27T07:29:21.658Z,99.90
2019-03-27T07:31:51.497Z,99.90
2019-03-27T07:34:21.336Z,99.90
2019-03-27T07:36:51.149Z,99.90
2019-03-27T07:39:20.973Z,99.90
2019-03-27T07:41:50.790Z,99.90
2019-03-27T07:44:20.713Z,99.90
2019-03-27T07:46:50.551Z,99.90
2019-03-27T07:49:20.354Z,99.90
2019-03-27T07:51:50.198Z,99.90
2019-03-27T07:54:20.001Z,99.90
2019-03-27T07:56:49.833Z,99.90
2019-03-27T07:59:19.657Z,99.90
2019-03-27T08:01:49.576Z,99.90
2019-03-27T08:04:19.398Z,99.90
2019-03-27T08:06:52.290Z,99.90
2019-03-27T08:09:23.150Z,99.90
2019-03-27T08:11:53.118Z,99.90
2019-03-27T08:14:22.932Z,99.90
2019-03-27T08:16:52.769Z,99.90
2019-03-27T08:19:22.618Z,99.90
2019-03-27T08:21:52.432Z,99.90
2019-03-27T08:24:22.345Z,99.90
2019-03-27T08:26:52.169Z,99.90
2019-03-27T08:29:21.971Z,99.90
2019-03-27T08:31:51.825Z,99.90
2019-03-27T08:34:21.646Z,99.90
2019-03-27T08:36:51.492Z,99.90
2019-03-27T08:39:21.300Z,99.90
2019-03-27T08:41:51.111Z,99.90
2019-03-27T08:44:21.030Z,99.90
2019-03-27T08:46:50.845Z,99.90
2019-03-27T08:49:22.464Z,99.90
2019-03-27T08:51:52.280Z,99.90
2019-03-27T08:54:22.099Z,99.90
2019-03-27T08:56:51.960Z,99.90
2019-03-27T08:59:21.852Z,99.90
2019-03-27T09:01:51.710Z,99.90
2019-03-27T09:04:21.538Z,99.90
2019-03-27T09:06:51.377Z,94.60
2019-03-27T09:09:21.203Z,89.60
2019-03-27T09:11:51.020Z,83.40
2019-03-27T09:14:20.867Z,77.40
2019-03-27T09:16:50.699Z,69.90
2019-03-27T09:19:34.586Z,68.70
2019-03-27T09:21:52.490Z,68.10
2019-03-27T09:24:22.305Z,66.90
2019-03-27T09:26:52.146Z,63.40
2019-03-27T09:29:21.963Z,63.80
2019-03-27T09:31:51.919Z,67.20
2019-03-27T09:34:21.741Z,70.60
2019-03-27T09:36:51.556Z,70.00
2019-03-27T09:39:21.371Z,67.80
2019-03-27T09:41:51.206Z,64.10
2019-03-27T09:44:21.050Z,63.60
2019-03-27T09:46:50.942Z,66.90
2019-03-27T09:49:20.748Z,66.30
2019-03-27T09:51:50.583Z,67.20
2019-03-27T09:54:20.502Z,61.70
2019-03-27T09:56:50.378Z,59.60
2019-03-27T09:59:20.197Z,57.30
2019-03-27T10:01:50.028Z,59.70
2019-03-27T10:04:19.875Z,56.30
2019-03-27T10:06:49.714Z,57.00
2019-03-27T10:09:19.520Z,57.60
2019-03-27T10:11:49.342Z,60.60
2019-03-27T10:14:19.186Z,63.10
2019-03-27T10:16:49.032Z,65.00
2019-03-27T10:19:18.943Z,67.00
2019-03-27T10:21:48.857Z,70.00
2019-03-27T10:24:18.676Z,68.50
2019-03-27T10:26:48.513Z,68.10
2019-03-27T10:29:18.344Z,70.00
2019-03-27T10:31:48.182Z,67.80
2019-03-27T10:34:18.092Z,72.00
2019-03-27T10:36:47.908Z,72.10
2019-03-27T10:39:17.787Z,73.20
2019-03-27T10:41:47.688Z,71.30
2019-03-27T10:44:17.702Z,72.50
2019-03-27T10:46:47.613Z,72.20
2019-03-27T10:49:17.415Z,71.30
2019-03-27T10:51:47.245Z,67.20
2019-03-27T10:54:17.044Z,62.20
2019-03-27T10:56:46.854Z,58.10
2019-03-27T10:59:16.701Z,55.50
2019-03-27T11:01:46.561Z,55.60
2019-03-27T11:04:16.375Z,59.50
2019-03-27T11:06:46.219Z,59.50
2019-03-27T11:09:16.170Z,57.90
2019-03-27T11:11:46.278Z,63.40
2019-03-27T11:14:17.158Z,64.00
2019-03-27T11:16:47.677Z,63.40
2019-03-27T11:19:17.590Z,64.80
2019-03-27T11:21:47.722Z,65.50
2019-03-27T11:24:17.834Z,65.30
2019-03-27T11:26:47.709Z,63.80
2019-03-27T11:29:17.856Z,63.50
2019-03-27T11:31:47.936Z,61.70
2019-03-27T11:34:18.090Z,63.80
2019-03-27T11:36:48.057Z,64.60
2019-03-27T11:39:18.945Z,63.70
2019-03-27T11:41:49.078Z,63.10
2019-03-27T11:44:19.240Z,61.10
2019-03-27T11:46:49.273Z,57.00
2019-03-27T11:49:19.234Z,55.50
2019-03-27T11:51:49.503Z,51.80
2019-03-27T11:54:19.767Z,50.80
2019-03-27T11:56:50.466Z,46.80
2019-03-27T11:59:22.510Z,43.10
2019-03-27T12:01:52.889Z,42.50
2019-03-27T12:04:22.818Z,40.90
2019-03-27T12:06:52.798Z,40.60
2019-03-27T12:09:22.765Z,41.70
2019-03-27T12:11:52.580Z,43.80
2019-03-27T12:14:22.463Z,44.90
2019-03-27T12:16:52.302Z,43.70
2019-03-27T12:19:22.220Z,45.50
2019-03-27T12:21:54.691Z,47.10
2019-03-27T12:24:23.658Z,48.10
2019-03-27T12:26:53.595Z,53.00
2019-03-27T12:29:23.648Z,53.90
2019-03-27T12:31:53.548Z,54.00
2019-03-27T12:34:23.466Z,56.60
2019-03-27T12:36:53.453Z,58.90
2019-03-27T12:39:23.689Z,62.10
2019-03-27T12:41:53.718Z,64.50
2019-03-27T12:44:23.643Z,61.50
2019-03-27T12:46:53.554Z,63.10
2019-03-27T12:49:23.899Z,62.10
2019-03-27T12:51:53.739Z,59.30
2019-03-27T12:54:23.823Z,58.60
2019-03-27T12:56:53.863Z,57.50
2019-03-27T12:59:23.709Z,59.10
2019-03-27T13:01:53.530Z,56.10
2019-03-27T13:04:23.414Z,55.20
2019-03-27T13:06:53.255Z,54.70
2019-03-27T13:09:23.062Z,53.40
2019-03-27T13:11:52.898Z,53.20
2019-03-27T13:14:22.738Z,52.30
2019-03-27T13:16:52.606Z,51.90
2019-03-27T13:19:22.452Z,49.20
2019-03-27T13:21:52.255Z,49.10
2019-03-27T13:24:22.102Z,48.00
2019-03-27T13:26:51.904Z,47.60
2019-03-27T13:29:21.745Z,51.00
2019-03-27T13:31:51.563Z,52.80
2019-03-27T13:34:21.388Z,53.30
2019-03-27T13:36:52.515Z,52.50
2019-03-27T13:39:22.320Z,50.20
2019-03-27T13:41:52.134Z,49.80
2019-03-27T13:44:31.417Z,47.10
2019-03-27T13:46:53.607Z,50.40
2019-03-27T13:49:23.436Z,49.80
2019-03-27T13:51:53.251Z,54.40
2019-03-27T13:54:23.050Z,54.70
2019-03-27T13:56:52.905Z,56.00
2019-03-27T13:59:22.784Z,55.90
2019-03-27T14:01:52.614Z,56.50
2019-03-27T14:04:22.662Z,59.00
2019-03-27T14:06:52.897Z,61.20
2019-03-27T14:09:22.922Z,62.80
2019-03-27T14:11:52.892Z,61.60
2019-03-27T14:14:22.997Z,66.20
2019-03-27T14:16:52.814Z,63.90
2019-03-27T14:19:22.632Z,65.80
2019-03-27T14:21:54.983Z,65.40
2019-03-27T14:24:24.007Z,65.20
2019-03-27T14:26:53.818Z,64.00
2019-03-27T14:29:23.616Z,64.90
2019-03-27T14:31:53.452Z,66.90
2019-03-27T14:34:23.283Z,63.60
2019-03-27T14:36:53.113Z,66.70
2019-03-27T14:39:22.981Z,79.60
2019-03-27T14:41:53.099Z,70.40
2019-03-27T14:44:23.107Z,70.40
2019-03-27T14:46:52.968Z,75.60
2019-03-27T14:49:22.795Z,73.90
2019-03-27T14:51:52.642Z,75.80
2019-03-27T14:54:22.525Z,63.10
2019-03-27T14:56:52.354Z,62.70
2019-03-27T14:59:22.246Z,62.10
2019-03-27T15:01:52.186Z,63.80
2019-03-27T15:04:22.054Z,64.20
2019-03-27T15:06:52.224Z,64.50
2019-03-27T15:09:22.123Z,64.80
2019-03-27T15:11:51.998Z,66.50
2019-03-27T15:14:21.936Z,66.00
2019-03-27T15:16:51.858Z,67.80
2019-03-27T15:19:21.731Z,66.40
2019-03-27T15:21:51.675Z,67.60
2019-03-27T15:24:21.473Z,68.60
2019-03-27T15:26:51.329Z,66.20
2019-03-27T15:29:21.426Z,65.80
2019-03-27T15:31:51.261Z,67.70
2019-03-27T15:34:21.216Z,68.30
2019-03-27T15:36:51.080Z,68.70
2019-03-27T15:39:20.907Z,67.40
2019-03-27T15:41:50.768Z,69.50
2019-03-27T15:44:20.574Z,67.70
2019-03-27T15:46:50.399Z,68.50
2019-03-27T15:49:20.200Z,68.40
2019-03-27T15:51:50.037Z,67.60
2019-03-27T15:54:19.856Z,67.60
2019-03-27T15:56:49.679Z,68.20
2019-03-27T15:59:19.607Z,67.80
2019-03-27T16:01:49.452Z,68.70
2019-03-27T16:04:19.367Z,69.30
2019-03-27T16:06:49.194Z,68.50
2019-03-27T16:09:19.433Z,69.50
2019-03-27T16:11:49.241Z,69.90
2019-03-27T16:14:19.135Z,68.60
2019-03-27T16:17:06.938Z,69.30
2019-03-27T16:19:20.492Z,68.60
2019-03-27T16:21:50.793Z,68.80
2019-03-27T16:24:20.633Z,71.00
2019-03-27T16:27:03.919Z,70.90
2019-03-27T16:29:21.967Z,71.60
2019-03-27T16:31:51.826Z,71.60
2019-03-27T16:34:25.039Z,71.30
2019-03-27T16:36:54.313Z,71.60
2019-03-27T16:39:24.297Z,72.40
2019-03-27T16:41:54.160Z,73.10
2019-03-27T16:44:23.981Z,73.30
2019-03-27T16:46:53.809Z,73.90
2019-03-27T16:49:23.893Z,74.00
2019-03-27T16:51:56.275Z,74.10
2019-03-27T16:54:25.310Z,74.50
2019-03-27T16:56:55.258Z,75.40
2019-03-27T16:59:25.097Z,75.80
2019-03-27T17:01:55.973Z,74.70
2019-03-27T17:04:25.793Z,74.50
2019-03-27T17:06:55.637Z,77.20
2019-03-27T17:09:25.600Z,79.20
2019-03-27T17:11:55.467Z,79.20
2019-03-27T17:14:25.266Z,80.60
2019-03-27T17:16:55.093Z,81.30
2019-03-27T17:19:24.953Z,83.90
2019-03-27T17:21:54.797Z,84.40
2019-03-27T17:24:24.613Z,84.60
2019-03-27T17:26:54.556Z,86.30
2019-03-27T17:29:24.442Z,87.20
2019-03-27T17:31:54.438Z,88.10
2019-03-27T17:34:24.340Z,88.30
2019-03-27T17:36:54.322Z,89.40
2019-03-27T17:39:24.164Z,88.70
2019-03-27T17:41:54.061Z,89.60
2019-03-27T17:44:23.900Z,90.10
2019-03-27T17:46:53.718Z,90.40
2019-03-27T17:49:23.553Z,90.90
2019-03-27T17:51:53.592Z,91.50
2019-03-27T17:54:23.406Z,92.10
2019-03-27T17:56:53.247Z,92.20
2019-03-27T17:59:23.038Z,92.60
2019-03-27T18:01:52.844Z,93.70
2019-03-27T18:04:22.678Z,93.60
2019-03-27T18:06:52.490Z,94.00
2019-03-27T18:09:22.325Z,94.70
2019-03-27T18:11:52.209Z,94.80
2019-03-27T18:14:22.143Z,95.20
2019-03-27T18:16:52.487Z,95.40
2019-03-27T18:19:22.369Z,96.30
2019-03-27T18:21:52.193Z,96.30
2019-03-27T18:24:22.008Z,96.80
2019-03-27T18:26:51.977Z,97.10
2019-03-27T18:29:22.295Z,97.60
2019-03-27T18:31:52.469Z,98.00
2019-03-27T18:34:22.601Z,98.10
2019-03-27T18:36:52.418Z,98.60
2019-03-27T18:39:22.248Z,98.60
2019-03-27T18:41:52.052Z,98.60
2019-03-27T18:44:22.497Z,99.00
2019-03-27T18:46:52.535Z,98.90
2019-03-27T18:49:22.527Z,99.10
2019-03-27T18:51:52.431Z,99.30
2019-03-27T18:54:23.631Z,99.30
2019-03-27T18:56:54.049Z,99.50
2019-03-27T18:59:23.863Z,99.80
2019-03-27T19:01:53.854Z,99.90
2019-03-27T19:04:24.024Z,99.90
2019-03-27T19:06:54.033Z,99.90
2019-03-27T19:09:23.864Z,99.90
2019-03-27T19:11:53.685Z,99.90
2019-03-27T19:14:23.522Z,99.90
2019-03-27T19:16:53.345Z,99.90
2019-03-27T19:19:23.291Z,99.90
2019-03-27T19:21:53.113Z,99.90
2019-03-27T19:24:22.944Z,99.90
2019-03-27T19:26:52.751Z,99.90
2019-03-27T19:29:22.666Z,99.90
2019-03-27T19:31:52.544Z,99.90
2019-03-27T19:34:22.386Z,99.90
2019-03-27T19:36:52.292Z,99.90
2019-03-27T19:39:22.209Z,99.90
2019-03-27T19:41:52.354Z,99.90
2019-03-27T19:44:22.256Z,99.90
2019-03-27T19:46:52.317Z,99.90
2019-03-27T19:49:22.277Z,99.90
2019-03-27T19:51:52.116Z,99.90
2019-03-27T19:54:27.236Z,99.90
2019-03-27T19:56:53.590Z,99.90
2019-03-27T19:59:23.404Z,99.90
2019-03-27T20:01:53.229Z,99.90
2019-03-27T20:04:23.064Z,99.90
2019-03-27T20:06:52.873Z,99.90
2019-03-27T20:09:22.675Z,99.90
2019-03-27T20:11:52.506Z,99.90
2019-03-27T20:14:22.328Z,99.90
2019-03-27T20:16:52.124Z,99.90
2019-03-27T20:19:21.968Z,99.90
2019-03-27T20:21:51.788Z,99.90
2019-03-27T20:24:21.613Z,99.90
2019-03-27T20:26:51.605Z,99.90
2019-03-27T20:29:21.452Z,99.90
2019-03-27T20:31:51.281Z,99.90
2019-03-27T20:34:21.141Z,99.90
2019-03-27T20:36:50.945Z,99.90
2019-03-27T20:39:20.786Z,99.90
2019-03-27T20:41:50.589Z,99.90
2019-03-27T20:44:20.441Z,99.90
2019-03-27T20:46:50.272Z,99.90
2019-03-27T20:49:20.080Z,99.90
2019-03-27T20:51:49.894Z,99.90
2019-03-27T20:54:19.729Z,99.90
2019-03-27T20:56:49.539Z,99.90
2019-03-27T20:59:19.462Z,99.90
2019-03-27T21:01:49.304Z,99.90
2019-03-27T21:04:19.165Z,99.90
2019-03-27T21:06:49.045Z,99.90
2019-03-27T21:09:19.116Z,99.90
2019-03-27T21:11:48.977Z,99.90
2019-03-27T21:14:18.833Z,99.90
2019-03-27T21:16:48.843Z,99.90
2019-03-27T21:19:18.743Z,99.90
2019-03-27T21:21:48.625Z,99.90
2019-03-27T21:24:18.462Z,99.90
2019-03-27T21:26:48.298Z,99.90
2019-03-27T21:29:18.116Z,99.90
2019-03-27T21:31:47.998Z,99.90
2019-03-27T21:34:17.845Z,99.90
2019-03-27T21:36:47.781Z,99.90
2019-03-27T21:39:17.706Z,99.90
2019-03-27T21:41:47.596Z,99.90
2019-03-27T21:44:17.439Z,99.90
2019-03-27T21:46:47.339Z,99.90
2019-03-27T21:49:17.164Z,99.90
2019-03-27T21:51:47.013Z,99.90
2019-03-27T21:54:16.936Z,99.90
2019-03-27T21:56:46.827Z,99.90
2019-03-27T21:59:16.721Z,99.90
2019-03-27T22:01:46.582Z,99.90
2019-03-27T22:04:16.406Z,99.90
2019-03-27T22:06:46.406Z,99.90
2019-03-27T22:09:16.244Z,99.90
2019-03-27T22:11:46.070Z,99.90
2019-03-27T22:14:15.885Z,99.90
2019-03-27T22:16:45.733Z,99.90
2019-03-27T22:19:15.575Z,99.90
2019-03-27T22:21:45.409Z,99.90
2019-03-27T22:24:15.256Z,99.90
2019-03-27T22:26:45.162Z,99.90
2019-03-27T22:29:14.978Z,99.90
2019-03-27T22:31:44.933Z,99.90
2019-03-27T22:34:14.754Z,99.90
2019-03-27T22:36:44.657Z,99.90
2019-03-27T22:39:14.596Z,99.90
2019-03-27T22:41:44.483Z,99.90
2019-03-27T22:44:14.382Z,99.90
2019-03-27T22:46:44.309Z,99.90
2019-03-27T22:49:14.194Z,99.90
2019-03-27T22:51:44.032Z,99.90
2019-03-27T22:54:13.875Z,99.90
2019-03-27T22:56:43.685Z,99.90
2019-03-27T22:59:13.539Z,99.90
2019-03-27T23:01:47.373Z,99.90
2019-03-27T23:04:17.390Z,99.90
2019-03-27T23:06:47.221Z,99.90
2019-03-27T23:09:17.110Z,99.90
2019-03-27T23:11:48.770Z,99.90
2019-03-27T23:14:18.610Z,99.90
2019-03-27T23:16:48.531Z,99.90
2019-03-27T23:19:18.385Z,99.90
2019-03-27T23:21:48.228Z,99.90
2019-03-27T23:24:18.102Z,99.90
2019-03-27T23:26:47.936Z,99.90
2019-03-27T23:29:17.753Z,99.90
2019-03-27T23:31:47.670Z,99.90
2019-03-27T23:34:17.565Z,99.90
2019-03-27T23:36:47.446Z,99.90
2019-03-27T23:39:17.303Z,99.90
2019-03-27T23:41:47.169Z,99.90
2019-03-27T23:44:17.001Z,99.90
2019-03-27T23:46:46.863Z,99.90
2019-03-27T23:49:16.686Z,99.90
2019-03-27T23:51:46.506Z,99.90
2019-03-27T23:54:16.368Z,99.90
2019-03-27T23:56:46.253Z,99.90
2019-03-27T23:59:16.066Z,99.90
